sensor_id;sensor_type;location;lat;lon;timestamp;P1;durP1;ratioP1;P2;durP2;ratioP2
73776;SDS011;62088;50.240;2.696;2022-08-19T00:01:33;14.00;;;9.25;;
73776;SDS011;62088;50.240;2.696;2022-08-19T00:04:05;15.07;;;8.70;;
73776;SDS011;62088;50.240;2.696;2022-08-19T00:06:35;13.65;;;8.20;;
73776;SDS011;62088;50.240;2.696;2022-08-19T00:09:04;13.73;;;7.53;;
73776;SDS011;62088;50.240;2.696;2022-08-19T00:11:32;17.02;;;7.97;;
73776;SDS011;62088;50.240;2.696;2022-08-19T00:14:04;10.68;;;7.03;;
73776;SDS011;62088;50.240;2.696;2022-08-19T00:16:33;13.02;;;6.78;;
73776;SDS011;62088;50.240;2.696;2022-08-19T00:19:00;14.00;;;7.47;;
73776;SDS011;62088;50.240;2.696;2022-08-19T00:21:27;12.32;;;7.93;;
73776;SDS011;62088;50.240;2.696;2022-08-19T00:23:56;10.77;;;7.20;;
73776;SDS011;62088;50.240;2.696;2022-08-19T00:26:27;12.07;;;7.25;;
73776;SDS011;62088;50.240;2.696;2022-08-19T00:28:54;11.15;;;7.25;;
73776;SDS011;62088;50.240;2.696;2022-08-19T00:31:22;14.82;;;8.30;;
73776;SDS011;62088;50.240;2.696;2022-08-19T00:33:49;18.48;;;8.25;;
73776;SDS011;62088;50.240;2.696;2022-08-19T00:36:16;12.63;;;7.43;;
73776;SDS011;62088;50.240;2.696;2022-08-19T00:38:43;20.15;;;7.78;;
73776;SDS011;62088;50.240;2.696;2022-08-19T00:41:14;14.68;;;8.27;;
73776;SDS011;62088;50.240;2.696;2022-08-19T00:43:49;16.65;;;7.53;;
73776;SDS011;62088;50.240;2.696;2022-08-19T00:46:32;16.13;;;7.85;;
73776;SDS011;62088;50.240;2.696;2022-08-19T00:49:02;13.40;;;7.07;;
73776;SDS011;62088;50.240;2.696;2022-08-19T00:51:55;9.10;;;6.25;;
73776;SDS011;62088;50.240;2.696;2022-08-19T00:54:45;10.82;;;6.75;;
73776;SDS011;62088;50.240;2.696;2022-08-19T00:57:18;13.20;;;7.38;;
73776;SDS011;62088;50.240;2.696;2022-08-19T00:59:52;11.50;;;6.55;;
73776;SDS011;62088;50.240;2.696;2022-08-19T01:02:29;12.00;;;6.13;;
73776;SDS011;62088;50.240;2.696;2022-08-19T01:04:58;11.95;;;6.07;;
73776;SDS011;62088;50.240;2.696;2022-08-19T01:07:27;9.80;;;5.10;;
73776;SDS011;62088;50.240;2.696;2022-08-19T01:10:03;8.50;;;5.43;;
73776;SDS011;62088;50.240;2.696;2022-08-19T01:12:36;8.93;;;5.30;;
73776;SDS011;62088;50.240;2.696;2022-08-19T01:15:05;14.10;;;5.63;;
73776;SDS011;62088;50.240;2.696;2022-08-19T01:17:36;10.43;;;5.55;;
73776;SDS011;62088;50.240;2.696;2022-08-19T01:20:05;7.55;;;4.47;;
73776;SDS011;62088;50.240;2.696;2022-08-19T01:22:37;14.15;;;5.13;;
73776;SDS011;62088;50.240;2.696;2022-08-19T01:25:10;11.32;;;5.68;;
73776;SDS011;62088;50.240;2.696;2022-08-19T01:27:41;10.90;;;4.82;;
73776;SDS011;62088;50.240;2.696;2022-08-19T01:30:16;13.77;;;5.03;;
73776;SDS011;62088;50.240;2.696;2022-08-19T01:32:49;8.98;;;4.85;;
73776;SDS011;62088;50.240;2.696;2022-08-19T01:35:17;10.73;;;5.28;;
73776;SDS011;62088;50.240;2.696;2022-08-19T01:37:50;9.40;;;4.68;;
73776;SDS011;62088;50.240;2.696;2022-08-19T01:40:42;8.75;;;4.18;;
73776;SDS011;62088;50.240;2.696;2022-08-19T01:43:09;8.68;;;4.25;;
73776;SDS011;62088;50.240;2.696;2022-08-19T01:45:36;11.30;;;4.65;;
73776;SDS011;62088;50.240;2.696;2022-08-19T01:48:06;9.20;;;4.47;;
73776;SDS011;62088;50.240;2.696;2022-08-19T01:50:34;8.13;;;4.43;;
73776;SDS011;62088;50.240;2.696;2022-08-19T01:53:03;9.30;;;3.83;;
73776;SDS011;62088;50.240;2.696;2022-08-19T01:58:07;11.93;;;4.28;;
73776;SDS011;62088;50.240;2.696;2022-08-19T02:00:40;10.18;;;3.78;;
73776;SDS011;62088;50.240;2.696;2022-08-19T02:03:08;12.88;;;4.40;;
73776;SDS011;62088;50.240;2.696;2022-08-19T02:05:36;11.25;;;5.22;;
73776;SDS011;62088;50.240;2.696;2022-08-19T02:08:04;10.65;;;5.05;;
73776;SDS011;62088;50.240;2.696;2022-08-19T02:10:31;12.55;;;5.50;;
73776;SDS011;62088;50.240;2.696;2022-08-19T02:12:58;9.75;;;4.75;;
73776;SDS011;62088;50.240;2.696;2022-08-19T02:15:25;12.18;;;5.78;;
73776;SDS011;62088;50.240;2.696;2022-08-19T02:17:52;12.55;;;6.10;;
73776;SDS011;62088;50.240;2.696;2022-08-19T02:20:19;13.60;;;5.90;;
73776;SDS011;62088;50.240;2.696;2022-08-19T02:22:46;13.18;;;6.35;;
73776;SDS011;62088;50.240;2.696;2022-08-19T02:25:13;16.65;;;6.70;;
73776;SDS011;62088;50.240;2.696;2022-08-19T02:27:41;10.60;;;5.97;;
73776;SDS011;62088;50.240;2.696;2022-08-19T02:30:10;13.13;;;6.20;;
73776;SDS011;62088;50.240;2.696;2022-08-19T02:32:42;13.50;;;5.65;;
73776;SDS011;62088;50.240;2.696;2022-08-19T02:35:11;15.45;;;6.70;;
73776;SDS011;62088;50.240;2.696;2022-08-19T02:37:41;13.45;;;6.20;;
73776;SDS011;62088;50.240;2.696;2022-08-19T02:40:28;13.77;;;6.57;;
73776;SDS011;62088;50.240;2.696;2022-08-19T02:42:56;13.00;;;6.45;;
73776;SDS011;62088;50.240;2.696;2022-08-19T02:45:23;20.90;;;6.85;;
73776;SDS011;62088;50.240;2.696;2022-08-19T02:47:50;14.10;;;6.70;;
73776;SDS011;62088;50.240;2.696;2022-08-19T02:50:17;11.15;;;6.68;;
73776;SDS011;62088;50.240;2.696;2022-08-19T02:52:44;13.82;;;6.70;;
73776;SDS011;62088;50.240;2.696;2022-08-19T02:55:11;16.63;;;7.10;;
73776;SDS011;62088;50.240;2.696;2022-08-19T02:57:38;13.82;;;7.50;;
73776;SDS011;62088;50.240;2.696;2022-08-19T03:00:06;14.88;;;7.70;;
73776;SDS011;62088;50.240;2.696;2022-08-19T03:02:35;17.55;;;8.48;;
73776;SDS011;62088;50.240;2.696;2022-08-19T03:05:02;17.05;;;8.70;;
73776;SDS011;62088;50.240;2.696;2022-08-19T03:07:31;13.52;;;7.85;;
73776;SDS011;62088;50.240;2.696;2022-08-19T03:09:58;13.85;;;7.85;;
73776;SDS011;62088;50.240;2.696;2022-08-19T03:12:25;12.80;;;8.18;;
73776;SDS011;62088;50.240;2.696;2022-08-19T03:14:52;23.15;;;9.95;;
73776;SDS011;62088;50.240;2.696;2022-08-19T03:17:19;17.63;;;8.43;;
73776;SDS011;62088;50.240;2.696;2022-08-19T03:19:46;15.13;;;9.65;;
73776;SDS011;62088;50.240;2.696;2022-08-19T03:22:13;17.27;;;10.60;;
73776;SDS011;62088;50.240;2.696;2022-08-19T03:24:40;18.30;;;10.07;;
73776;SDS011;62088;50.240;2.696;2022-08-19T03:27:07;17.48;;;11.05;;
73776;SDS011;62088;50.240;2.696;2022-08-19T03:29:34;15.63;;;10.73;;
73776;SDS011;62088;50.240;2.696;2022-08-19T03:32:09;14.70;;;10.38;;
73776;SDS011;62088;50.240;2.696;2022-08-19T03:34:56;16.58;;;10.25;;
73776;SDS011;62088;50.240;2.696;2022-08-19T03:37:23;15.65;;;9.82;;
73776;SDS011;62088;50.240;2.696;2022-08-19T03:39:51;19.35;;;9.88;;
73776;SDS011;62088;50.240;2.696;2022-08-19T03:42:18;16.17;;;11.38;;
73776;SDS011;62088;50.240;2.696;2022-08-19T03:45:05;16.55;;;10.25;;
73776;SDS011;62088;50.240;2.696;2022-08-19T03:47:33;17.42;;;10.40;;
73776;SDS011;62088;50.240;2.696;2022-08-19T03:50:00;16.80;;;10.20;;
73776;SDS011;62088;50.240;2.696;2022-08-19T03:52:28;16.27;;;9.07;;
73776;SDS011;62088;50.240;2.696;2022-08-19T03:54:55;18.92;;;10.00;;
73776;SDS011;62088;50.240;2.696;2022-08-19T03:57:22;13.00;;;9.38;;
73776;SDS011;62088;50.240;2.696;2022-08-19T03:59:57;16.45;;;9.13;;
73776;SDS011;62088;50.240;2.696;2022-08-19T04:02:39;15.90;;;9.52;;
73776;SDS011;62088;50.240;2.696;2022-08-19T04:05:23;14.13;;;8.48;;
73776;SDS011;62088;50.240;2.696;2022-08-19T04:07:53;13.52;;;8.13;;
73776;SDS011;62088;50.240;2.696;2022-08-19T04:10:21;14.50;;;8.80;;
73776;SDS011;62088;50.240;2.696;2022-08-19T04:12:48;14.13;;;8.80;;
73776;SDS011;62088;50.240;2.696;2022-08-19T04:15:16;15.85;;;9.07;;
73776;SDS011;62088;50.240;2.696;2022-08-19T04:17:43;13.45;;;8.23;;
73776;SDS011;62088;50.240;2.696;2022-08-19T04:20:10;12.80;;;7.50;;
73776;SDS011;62088;50.240;2.696;2022-08-19T04:22:37;13.52;;;8.18;;
73776;SDS011;62088;50.240;2.696;2022-08-19T04:25:04;12.55;;;7.88;;
73776;SDS011;62088;50.240;2.696;2022-08-19T04:27:31;14.50;;;7.80;;
73776;SDS011;62088;50.240;2.696;2022-08-19T04:29:59;13.10;;;7.63;;
73776;SDS011;62088;50.240;2.696;2022-08-19T04:32:26;15.52;;;8.40;;
73776;SDS011;62088;50.240;2.696;2022-08-19T04:34:53;12.48;;;7.05;;
73776;SDS011;62088;50.240;2.696;2022-08-19T04:37:41;12.60;;;7.30;;
73776;SDS011;62088;50.240;2.696;2022-08-19T04:40:08;19.20;;;8.80;;
73776;SDS011;62088;50.240;2.696;2022-08-19T04:42:54;13.05;;;7.53;;
73776;SDS011;62088;50.240;2.696;2022-08-19T04:45:22;12.07;;;7.03;;
73776;SDS011;62088;50.240;2.696;2022-08-19T04:47:49;9.65;;;6.75;;
73776;SDS011;62088;50.240;2.696;2022-08-19T04:50:42;12.55;;;6.80;;
73776;SDS011;62088;50.240;2.696;2022-08-19T04:53:10;10.93;;;7.03;;
73776;SDS011;62088;50.240;2.696;2022-08-19T04:55:40;11.57;;;7.38;;
73776;SDS011;62088;50.240;2.696;2022-08-19T04:58:08;8.30;;;6.35;;
73776;SDS011;62088;50.240;2.696;2022-08-19T05:00:37;12.45;;;7.45;;
73776;SDS011;62088;50.240;2.696;2022-08-19T05:03:05;10.60;;;7.13;;
73776;SDS011;62088;50.240;2.696;2022-08-19T05:05:33;12.20;;;6.90;;
73776;SDS011;62088;50.240;2.696;2022-08-19T05:08:14;11.05;;;6.53;;
73776;SDS011;62088;50.240;2.696;2022-08-19T05:10:57;14.15;;;8.25;;
73776;SDS011;62088;50.240;2.696;2022-08-19T05:13:24;11.20;;;6.35;;
73776;SDS011;62088;50.240;2.696;2022-08-19T05:15:57;9.18;;;6.05;;
73776;SDS011;62088;50.240;2.696;2022-08-19T05:21:11;14.20;;;6.18;;
73776;SDS011;62088;50.240;2.696;2022-08-19T05:23:58;9.75;;;5.78;;
73776;SDS011;62088;50.240;2.696;2022-08-19T05:26:25;10.20;;;5.60;;
73776;SDS011;62088;50.240;2.696;2022-08-19T05:28:53;6.97;;;3.95;;
73776;SDS011;62088;50.240;2.696;2022-08-19T05:31:21;5.45;;;3.47;;
73776;SDS011;62088;50.240;2.696;2022-08-19T05:33:48;4.47;;;2.75;;
73776;SDS011;62088;50.240;2.696;2022-08-19T05:36:15;4.97;;;2.42;;
73776;SDS011;62088;50.240;2.696;2022-08-19T05:38:42;4.60;;;2.70;;
73776;SDS011;62088;50.240;2.696;2022-08-19T05:41:10;5.63;;;2.80;;
73776;SDS011;62088;50.240;2.696;2022-08-19T05:43:41;6.57;;;2.65;;
73776;SDS011;62088;50.240;2.696;2022-08-19T05:46:08;5.18;;;2.80;;
73776;SDS011;62088;50.240;2.696;2022-08-19T05:48:42;6.82;;;3.13;;
73776;SDS011;62088;50.240;2.696;2022-08-19T05:51:09;6.07;;;3.38;;
73776;SDS011;62088;50.240;2.696;2022-08-19T05:53:36;6.15;;;3.33;;
73776;SDS011;62088;50.240;2.696;2022-08-19T05:56:07;5.88;;;3.13;;
73776;SDS011;62088;50.240;2.696;2022-08-19T05:58:36;8.47;;;3.73;;
73776;SDS011;62088;50.240;2.696;2022-08-19T06:01:08;6.40;;;3.80;;
73776;SDS011;62088;50.240;2.696;2022-08-19T06:03:36;6.53;;;3.35;;
73776;SDS011;62088;50.240;2.696;2022-08-19T06:06:05;5.80;;;3.58;;
73776;SDS011;62088;50.240;2.696;2022-08-19T06:08:34;5.70;;;3.15;;
73776;SDS011;62088;50.240;2.696;2022-08-19T06:13:44;6.10;;;3.28;;
73776;SDS011;62088;50.240;2.696;2022-08-19T06:16:13;9.30;;;3.78;;
73776;SDS011;62088;50.240;2.696;2022-08-19T06:18:47;6.40;;;3.28;;
73776;SDS011;62088;50.240;2.696;2022-08-19T06:21:21;6.65;;;3.17;;
73776;SDS011;62088;50.240;2.696;2022-08-19T06:23:51;7.53;;;3.20;;
73776;SDS011;62088;50.240;2.696;2022-08-19T06:26:18;8.63;;;3.75;;
73776;SDS011;62088;50.240;2.696;2022-08-19T06:28:46;8.48;;;3.63;;
73776;SDS011;62088;50.240;2.696;2022-08-19T06:31:25;8.90;;;3.20;;
73776;SDS011;62088;50.240;2.696;2022-08-19T06:33:54;8.85;;;3.95;;
73776;SDS011;62088;50.240;2.696;2022-08-19T06:36:26;7.15;;;3.15;;
73776;SDS011;62088;50.240;2.696;2022-08-19T06:38:58;8.35;;;3.30;;
73776;SDS011;62088;50.240;2.696;2022-08-19T06:41:40;7.90;;;3.58;;
73776;SDS011;62088;50.240;2.696;2022-08-19T06:44:18;12.05;;;3.40;;
73776;SDS011;62088;50.240;2.696;2022-08-19T06:46:46;7.45;;;3.65;;
73776;SDS011;62088;50.240;2.696;2022-08-19T06:49:20;7.30;;;3.60;;
73776;SDS011;62088;50.240;2.696;2022-08-19T06:51:48;7.82;;;3.05;;
73776;SDS011;62088;50.240;2.696;2022-08-19T06:54:17;9.65;;;3.90;;
73776;SDS011;62088;50.240;2.696;2022-08-19T06:56:45;6.90;;;3.30;;
73776;SDS011;62088;50.240;2.696;2022-08-19T06:59:14;7.32;;;3.33;;
73776;SDS011;62088;50.240;2.696;2022-08-19T07:01:46;18.65;;;9.43;;
73776;SDS011;62088;50.240;2.696;2022-08-19T07:04:17;17.42;;;10.65;;
73776;SDS011;62088;50.240;2.696;2022-08-19T07:06:46;23.25;;;13.98;;
73776;SDS011;62088;50.240;2.696;2022-08-19T07:09:20;26.92;;;11.05;;
73776;SDS011;62088;50.240;2.696;2022-08-19T07:11:49;10.73;;;4.57;;
73776;SDS011;62088;50.240;2.696;2022-08-19T07:14:19;7.30;;;2.80;;
73776;SDS011;62088;50.240;2.696;2022-08-19T07:16:48;5.55;;;2.72;;
73776;SDS011;62088;50.240;2.696;2022-08-19T07:19:18;3.92;;;2.20;;
73776;SDS011;62088;50.240;2.696;2022-08-19T07:21:47;5.25;;;1.90;;
73776;SDS011;62088;50.240;2.696;2022-08-19T07:24:23;7.30;;;2.13;;
73776;SDS011;62088;50.240;2.696;2022-08-19T07:26:52;5.05;;;1.90;;
73776;SDS011;62088;50.240;2.696;2022-08-19T07:29:20;4.15;;;1.85;;
73776;SDS011;62088;50.240;2.696;2022-08-19T07:31:51;5.50;;;1.80;;
73776;SDS011;62088;50.240;2.696;2022-08-19T07:34:23;4.10;;;1.60;;
73776;SDS011;62088;50.240;2.696;2022-08-19T07:36:52;6.60;;;1.48;;
73776;SDS011;62088;50.240;2.696;2022-08-19T07:39:24;3.55;;;1.30;;
73776;SDS011;62088;50.240;2.696;2022-08-19T07:41:54;3.35;;;1.00;;
73776;SDS011;62088;50.240;2.696;2022-08-19T07:44:23;2.20;;;0.98;;
73776;SDS011;62088;50.240;2.696;2022-08-19T07:46:51;2.35;;;0.95;;
73776;SDS011;62088;50.240;2.696;2022-08-19T07:49:22;3.30;;;0.90;;
73776;SDS011;62088;50.240;2.696;2022-08-19T07:51:51;3.70;;;0.90;;
73776;SDS011;62088;50.240;2.696;2022-08-19T07:54:20;3.20;;;0.70;;
73776;SDS011;62088;50.240;2.696;2022-08-19T07:56:48;4.13;;;0.82;;
73776;SDS011;62088;50.240;2.696;2022-08-19T07:59:18;1.70;;;0.80;;
73776;SDS011;62088;50.240;2.696;2022-08-19T08:01:47;2.35;;;0.77;;
73776;SDS011;62088;50.240;2.696;2022-08-19T08:04:16;3.13;;;0.80;;
73776;SDS011;62088;50.240;2.696;2022-08-19T08:07:03;1.80;;;0.50;;
73776;SDS011;62088;50.240;2.696;2022-08-19T08:09:57;3.03;;;0.70;;
73776;SDS011;62088;50.240;2.696;2022-08-19T08:12:30;4.15;;;0.70;;
73776;SDS011;62088;50.240;2.696;2022-08-19T08:15:03;5.00;;;0.80;;
73776;SDS011;62088;50.240;2.696;2022-08-19T08:17:33;2.93;;;0.90;;
73776;SDS011;62088;50.240;2.696;2022-08-19T08:20:15;5.00;;;1.27;;
73776;SDS011;62088;50.240;2.696;2022-08-19T08:22:43;7.22;;;1.00;;
73776;SDS011;62088;50.240;2.696;2022-08-19T08:25:30;5.88;;;0.82;;
73776;SDS011;62088;50.240;2.696;2022-08-19T08:28:00;5.43;;;1.13;;
73776;SDS011;62088;50.240;2.696;2022-08-19T08:30:29;4.22;;;1.00;;
73776;SDS011;62088;50.240;2.696;2022-08-19T08:32:59;5.93;;;1.00;;
73776;SDS011;62088;50.240;2.696;2022-08-19T08:35:28;3.90;;;0.95;;
73776;SDS011;62088;50.240;2.696;2022-08-19T08:37:55;6.18;;;1.48;;
73776;SDS011;62088;50.240;2.696;2022-08-19T08:40:27;5.10;;;1.10;;
73776;SDS011;62088;50.240;2.696;2022-08-19T08:45:38;6.93;;;1.00;;
73776;SDS011;62088;50.240;2.696;2022-08-19T08:51:33;5.80;;;1.13;;
73776;SDS011;62088;50.240;2.696;2022-08-19T08:54:12;6.22;;;1.00;;
73776;SDS011;62088;50.240;2.696;2022-08-19T08:56:41;7.68;;;1.00;;
73776;SDS011;62088;50.240;2.696;2022-08-19T08:59:20;5.05;;;1.20;;
73776;SDS011;62088;50.240;2.696;2022-08-19T09:01:48;5.53;;;0.90;;
73776;SDS011;62088;50.240;2.696;2022-08-19T09:04:15;4.10;;;0.93;;
73776;SDS011;62088;50.240;2.696;2022-08-19T09:09:56;4.25;;;1.00;;
73776;SDS011;62088;50.240;2.696;2022-08-19T09:12:47;5.63;;;1.38;;
73776;SDS011;62088;50.240;2.696;2022-08-19T09:15:27;4.13;;;1.15;;
73776;SDS011;62088;50.240;2.696;2022-08-19T09:18:03;4.35;;;1.00;;
73776;SDS011;62088;50.240;2.696;2022-08-19T09:20:33;5.90;;;1.10;;
73776;SDS011;62088;50.240;2.696;2022-08-19T09:23:00;4.90;;;1.40;;
73776;SDS011;62088;50.240;2.696;2022-08-19T09:25:27;6.10;;;1.00;;
73776;SDS011;62088;50.240;2.696;2022-08-19T09:27:55;4.78;;;1.30;;
73776;SDS011;62088;50.240;2.696;2022-08-19T09:30:30;4.55;;;1.00;;
73776;SDS011;62088;50.240;2.696;2022-08-19T09:33:00;7.28;;;1.40;;
73776;SDS011;62088;50.240;2.696;2022-08-19T09:35:28;5.35;;;1.05;;
73776;SDS011;62088;50.240;2.696;2022-08-19T09:37:57;3.67;;;0.93;;
73776;SDS011;62088;50.240;2.696;2022-08-19T09:40:28;4.63;;;1.10;;
73776;SDS011;62088;50.240;2.696;2022-08-19T09:43:00;7.55;;;1.23;;
73776;SDS011;62088;50.240;2.696;2022-08-19T09:45:38;2.95;;;0.90;;
73776;SDS011;62088;50.240;2.696;2022-08-19T09:48:05;2.95;;;0.90;;
73776;SDS011;62088;50.240;2.696;2022-08-19T09:50:32;4.28;;;1.30;;
73776;SDS011;62088;50.240;2.696;2022-08-19T09:53:01;6.30;;;1.20;;
73776;SDS011;62088;50.240;2.696;2022-08-19T09:55:28;7.35;;;1.58;;
73776;SDS011;62088;50.240;2.696;2022-08-19T09:57:57;4.93;;;1.42;;
73776;SDS011;62088;50.240;2.696;2022-08-19T10:00:25;5.72;;;1.30;;
73776;SDS011;62088;50.240;2.696;2022-08-19T10:02:53;4.22;;;0.90;;
73776;SDS011;62088;50.240;2.696;2022-08-19T10:05:19;9.30;;;1.65;;
73776;SDS011;62088;50.240;2.696;2022-08-19T10:08:08;4.95;;;1.00;;
73776;SDS011;62088;50.240;2.696;2022-08-19T10:10:39;5.85;;;1.30;;
73776;SDS011;62088;50.240;2.696;2022-08-19T10:13:12;2.88;;;0.98;;
73776;SDS011;62088;50.240;2.696;2022-08-19T10:15:42;6.40;;;1.08;;
73776;SDS011;62088;50.240;2.696;2022-08-19T10:18:13;3.42;;;0.93;;
73776;SDS011;62088;50.240;2.696;2022-08-19T10:20:45;4.38;;;1.13;;
73776;SDS011;62088;50.240;2.696;2022-08-19T10:23:18;4.15;;;1.30;;
73776;SDS011;62088;50.240;2.696;2022-08-19T10:25:47;5.43;;;0.85;;
73776;SDS011;62088;50.240;2.696;2022-08-19T10:28:14;7.32;;;1.10;;
73776;SDS011;62088;50.240;2.696;2022-08-19T10:30:44;3.70;;;1.02;;
73776;SDS011;62088;50.240;2.696;2022-08-19T10:33:12;5.38;;;0.80;;
73776;SDS011;62088;50.240;2.696;2022-08-19T10:35:40;3.05;;;0.98;;
73776;SDS011;62088;50.240;2.696;2022-08-19T10:38:23;4.30;;;0.95;;
73776;SDS011;62088;50.240;2.696;2022-08-19T10:40:57;5.68;;;0.85;;
73776;SDS011;62088;50.240;2.696;2022-08-19T10:43:32;4.20;;;0.82;;
73776;SDS011;62088;50.240;2.696;2022-08-19T10:46:04;4.25;;;0.80;;
73776;SDS011;62088;50.240;2.696;2022-08-19T10:48:40;4.75;;;0.80;;
73776;SDS011;62088;50.240;2.696;2022-08-19T10:51:08;2.47;;;0.63;;
73776;SDS011;62088;50.240;2.696;2022-08-19T10:53:56;4.68;;;1.05;;
73776;SDS011;62088;50.240;2.696;2022-08-19T10:56:24;4.20;;;1.10;;
73776;SDS011;62088;50.240;2.696;2022-08-19T10:59:10;3.05;;;0.68;;
73776;SDS011;62088;50.240;2.696;2022-08-19T11:01:40;4.65;;;1.27;;
73776;SDS011;62088;50.240;2.696;2022-08-19T11:04:10;4.72;;;0.90;;
73776;SDS011;62088;50.240;2.696;2022-08-19T11:06:40;1.35;;;0.40;;
73776;SDS011;62088;50.240;2.696;2022-08-19T11:09:10;3.88;;;0.70;;
73776;SDS011;62088;50.240;2.696;2022-08-19T11:11:38;1.73;;;0.50;;
73776;SDS011;62088;50.240;2.696;2022-08-19T11:14:11;1.85;;;0.50;;
73776;SDS011;62088;50.240;2.696;2022-08-19T11:16:40;1.90;;;0.50;;
73776;SDS011;62088;50.240;2.696;2022-08-19T11:19:09;2.53;;;0.43;;
73776;SDS011;62088;50.240;2.696;2022-08-19T11:21:39;2.83;;;0.38;;
73776;SDS011;62088;50.240;2.696;2022-08-19T11:24:09;2.53;;;0.70;;
73776;SDS011;62088;50.240;2.696;2022-08-19T11:29:10;1.73;;;0.60;;
73776;SDS011;62088;50.240;2.696;2022-08-19T11:31:40;2.50;;;0.57;;
73776;SDS011;62088;50.240;2.696;2022-08-19T11:34:09;2.08;;;0.68;;
73776;SDS011;62088;50.240;2.696;2022-08-19T11:36:40;6.07;;;1.00;;
73776;SDS011;62088;50.240;2.696;2022-08-19T11:39:09;2.22;;;0.68;;
73776;SDS011;62088;50.240;2.696;2022-08-19T11:41:38;6.30;;;0.90;;
73776;SDS011;62088;50.240;2.696;2022-08-19T11:44:05;23.02;;;1.30;;
73776;SDS011;62088;50.240;2.696;2022-08-19T11:46:34;2.83;;;0.80;;
73776;SDS011;62088;50.240;2.696;2022-08-19T11:49:03;5.80;;;0.93;;
73776;SDS011;62088;50.240;2.696;2022-08-19T11:51:38;4.88;;;0.80;;
73776;SDS011;62088;50.240;2.696;2022-08-19T11:54:05;4.70;;;1.13;;
73776;SDS011;62088;50.240;2.696;2022-08-19T11:56:32;4.43;;;0.88;;
73776;SDS011;62088;50.240;2.696;2022-08-19T11:59:00;3.17;;;0.85;;
73776;SDS011;62088;50.240;2.696;2022-08-19T12:01:27;5.40;;;0.98;;
73776;SDS011;62088;50.240;2.696;2022-08-19T12:03:54;3.20;;;0.65;;
73776;SDS011;62088;50.240;2.696;2022-08-19T12:06:24;4.00;;;0.90;;
73776;SDS011;62088;50.240;2.696;2022-08-19T12:08:55;3.33;;;0.90;;
73776;SDS011;62088;50.240;2.696;2022-08-19T12:11:23;2.58;;;0.73;;
73776;SDS011;62088;50.240;2.696;2022-08-19T12:13:50;3.00;;;0.77;;
73776;SDS011;62088;50.240;2.696;2022-08-19T12:16:19;3.45;;;0.70;;
73776;SDS011;62088;50.240;2.696;2022-08-19T12:18:49;1.48;;;0.60;;
73776;SDS011;62088;50.240;2.696;2022-08-19T12:21:21;2.47;;;0.80;;
73776;SDS011;62088;50.240;2.696;2022-08-19T12:23:51;4.60;;;0.90;;
73776;SDS011;62088;50.240;2.696;2022-08-19T12:26:21;7.38;;;1.10;;
73776;SDS011;62088;50.240;2.696;2022-08-19T12:28:49;2.85;;;0.77;;
73776;SDS011;62088;50.240;2.696;2022-08-19T12:31:16;5.10;;;0.95;;
73776;SDS011;62088;50.240;2.696;2022-08-19T12:33:45;3.83;;;1.08;;
73776;SDS011;62088;50.240;2.696;2022-08-19T12:36:14;8.70;;;1.25;;
73776;SDS011;62088;50.240;2.696;2022-08-19T12:38:42;3.22;;;0.77;;
73776;SDS011;62088;50.240;2.696;2022-08-19T12:41:11;1.40;;;0.68;;
73776;SDS011;62088;50.240;2.696;2022-08-19T12:43:39;3.10;;;0.80;;
73776;SDS011;62088;50.240;2.696;2022-08-19T12:46:08;3.75;;;1.10;;
73776;SDS011;62088;50.240;2.696;2022-08-19T12:48:37;2.88;;;0.65;;
73776;SDS011;62088;50.240;2.696;2022-08-19T12:51:09;4.65;;;0.77;;
73776;SDS011;62088;50.240;2.696;2022-08-19T12:53:40;2.30;;;0.60;;
73776;SDS011;62088;50.240;2.696;2022-08-19T12:56:09;5.93;;;0.73;;
73776;SDS011;62088;50.240;2.696;2022-08-19T12:58:38;3.03;;;0.60;;
73776;SDS011;62088;50.240;2.696;2022-08-19T13:01:06;1.58;;;0.50;;
73776;SDS011;62088;50.240;2.696;2022-08-19T13:03:37;2.58;;;0.68;;
73776;SDS011;62088;50.240;2.696;2022-08-19T13:06:06;5.43;;;0.70;;
73776;SDS011;62088;50.240;2.696;2022-08-19T13:08:34;2.63;;;0.70;;
73776;SDS011;62088;50.240;2.696;2022-08-19T13:11:09;3.47;;;0.77;;
73776;SDS011;62088;50.240;2.696;2022-08-19T13:13:40;1.27;;;0.70;;
73776;SDS011;62088;50.240;2.696;2022-08-19T13:16:09;3.58;;;0.70;;
73776;SDS011;62088;50.240;2.696;2022-08-19T13:18:37;4.00;;;0.60;;
73776;SDS011;62088;50.240;2.696;2022-08-19T13:21:06;5.60;;;0.88;;
73776;SDS011;62088;50.240;2.696;2022-08-19T13:23:34;7.40;;;0.73;;
73776;SDS011;62088;50.240;2.696;2022-08-19T13:26:03;4.32;;;0.75;;
73776;SDS011;62088;50.240;2.696;2022-08-19T13:28:32;6.25;;;1.00;;
73776;SDS011;62088;50.240;2.696;2022-08-19T13:31:20;2.92;;;0.80;;
73776;SDS011;62088;50.240;2.696;2022-08-19T13:34:08;4.28;;;1.08;;
73776;SDS011;62088;50.240;2.696;2022-08-19T13:36:35;3.30;;;0.73;;
73776;SDS011;62088;50.240;2.696;2022-08-19T13:39:04;3.70;;;1.00;;
73776;SDS011;62088;50.240;2.696;2022-08-19T13:41:32;7.47;;;1.10;;
73776;SDS011;62088;50.240;2.696;2022-08-19T13:44:00;3.88;;;0.85;;
73776;SDS011;62088;50.240;2.696;2022-08-19T13:46:28;3.58;;;0.75;;
73776;SDS011;62088;50.240;2.696;2022-08-19T13:48:55;3.90;;;0.60;;
73776;SDS011;62088;50.240;2.696;2022-08-19T13:51:23;4.65;;;0.93;;
73776;SDS011;62088;50.240;2.696;2022-08-19T13:53:50;5.05;;;0.80;;
73776;SDS011;62088;50.240;2.696;2022-08-19T13:56:18;5.00;;;1.00;;
73776;SDS011;62088;50.240;2.696;2022-08-19T13:58:52;3.97;;;1.10;;
73776;SDS011;62088;50.240;2.696;2022-08-19T14:01:20;5.43;;;1.10;;
73776;SDS011;62088;50.240;2.696;2022-08-19T14:03:50;2.47;;;0.82;;
73776;SDS011;62088;50.240;2.696;2022-08-19T14:06:17;3.92;;;0.80;;
73776;SDS011;62088;50.240;2.696;2022-08-19T14:08:46;3.28;;;0.77;;
73776;SDS011;62088;50.240;2.696;2022-08-19T14:11:14;4.20;;;1.00;;
73776;SDS011;62088;50.240;2.696;2022-08-19T14:13:41;2.17;;;0.70;;
73776;SDS011;62088;50.240;2.696;2022-08-19T14:16:12;3.03;;;0.77;;
73776;SDS011;62088;50.240;2.696;2022-08-19T14:18:40;3.22;;;0.77;;
73776;SDS011;62088;50.240;2.696;2022-08-19T14:21:07;4.47;;;0.80;;
73776;SDS011;62088;50.240;2.696;2022-08-19T14:23:40;2.90;;;0.80;;
73776;SDS011;62088;50.240;2.696;2022-08-19T14:26:08;2.17;;;0.60;;
73776;SDS011;62088;50.240;2.696;2022-08-19T14:28:38;3.75;;;0.80;;
73776;SDS011;62088;50.240;2.696;2022-08-19T14:31:09;3.40;;;0.60;;
73776;SDS011;62088;50.240;2.696;2022-08-19T14:33:45;4.95;;;0.85;;
73776;SDS011;62088;50.240;2.696;2022-08-19T14:36:13;3.97;;;1.02;;
73776;SDS011;62088;50.240;2.696;2022-08-19T14:38:40;4.07;;;0.93;;
73776;SDS011;62088;50.240;2.696;2022-08-19T14:43:35;4.97;;;1.00;;
73776;SDS011;62088;50.240;2.696;2022-08-19T14:46:02;3.83;;;1.00;;
73776;SDS011;62088;50.240;2.696;2022-08-19T14:48:29;6.50;;;0.68;;
73776;SDS011;62088;50.240;2.696;2022-08-19T14:50:56;5.60;;;0.90;;
73776;SDS011;62088;50.240;2.696;2022-08-19T14:53:23;3.30;;;0.80;;
73776;SDS011;62088;50.240;2.696;2022-08-19T14:55:50;2.80;;;0.90;;
73776;SDS011;62088;50.240;2.696;2022-08-19T14:58:17;4.75;;;0.93;;
73776;SDS011;62088;50.240;2.696;2022-08-19T15:00:56;4.35;;;1.00;;
73776;SDS011;62088;50.240;2.696;2022-08-19T15:03:25;2.72;;;0.80;;
73776;SDS011;62088;50.240;2.696;2022-08-19T15:05:52;5.38;;;0.90;;
73776;SDS011;62088;50.240;2.696;2022-08-19T15:08:20;5.72;;;1.00;;
73776;SDS011;62088;50.240;2.696;2022-08-19T15:10:51;5.60;;;1.10;;
73776;SDS011;62088;50.240;2.696;2022-08-19T15:13:18;9.82;;;1.00;;
73776;SDS011;62088;50.240;2.696;2022-08-19T15:15:45;5.53;;;1.02;;
73776;SDS011;62088;50.240;2.696;2022-08-19T15:18:13;5.30;;;1.50;;
73776;SDS011;62088;50.240;2.696;2022-08-19T15:20:41;21.70;;;1.70;;
73776;SDS011;62088;50.240;2.696;2022-08-19T15:23:12;6.35;;;1.30;;
73776;SDS011;62088;50.240;2.696;2022-08-19T15:25:43;11.55;;;1.65;;